CheckWX is a tool to help pilots better visualize weather data.  It is not intended as a substitute for an official pre-flight weather briefing.

00:22:13 UTC

KMQY TAF
Smyrna Airport
Smyrna, Tennessee, USA
KMQY 052339Z 0600/0624 16005KT P6SM BKN120 FM060500 16003KT P6SM VCSH OVC070 FM061700 17005KT 5SM -RA BR OVC025

Dec-6@
00:00 UTC

Dec-6 @ 00:00 UTC

Dec-6@
05:00 UTC

Dec-6 @ 05:00 UTC

KMQY 052339Z 0600/0624 16005KT P6SM BKN120
Wind
  • 160° at 5 KTS
Cloud Levels
  • Broken at 12,000' AGL

Dec-6@
05:00 UTC

Dec-6 @ 05:00 UTC

Dec-6@
17:00 UTC

Dec-6 @ 17:00 UTC

FM060500 16003KT P6SM VCSH OVC070

From

From Standard forecast or significant change

Wind
  • 160° at 3 KTS
Cloud Levels
  • Overcast at 7,000' AGL

Dec-6@
17:00 UTC

Dec-6 @ 17:00 UTC

Dec-7@
00:00 UTC

Dec-7 @ 00:00 UTC

FM061700 17005KT 5SM -RA BR OVC025

From

From Standard forecast or significant change

Wind
  • 170° at 5 KTS
Conditions
Light Rain, Mist
Cloud Levels
  • Overcast at 2,500' AGL